Time;durP1;ratioP1;P1;durP2;ratioP2;P2;SDS_P1;SDS_P2;PMS_P1;PMS_P2;Temp;Humidity;BMP_temperature;BMP_pressure;BME280_temperature;BME280_humidity;BME280_pressure;Samples;Min_cycle;Max_cycle;Signal;HPM_P1;HPM_P2
2021/08/09 00:01:59;;;;;;;3.00;1.17;;;;;;;13.65;73.59;100772.09;4965315;28;20059;-83
2021/08/09 00:04:25;;;;;;;2.67;1.23;;;;;;;13.64;73.88;100773.88;4967690;28;20041;-83
2021/08/09 00:06:51;;;;;;;5.20;1.25;;;;;;;13.62;73.82;100770.38;4964302;28;20587;-84
2021/08/09 00:09:16;;;;;;;2.35;1.08;;;;;;;13.62;74.00;100774.81;4967919;28;20042;-83
2021/08/09 00:11:41;;;;;;;2.65;1.15;;;;;;;13.63;73.26;100776.56;4965160;28;20047;-83
2021/08/09 00:14:07;;;;;;;5.28;1.20;;;;;;;13.62;73.75;100778.31;4968074;28;20050;-83
2021/08/09 00:16:32;;;;;;;4.10;0.98;;;;;;;13.64;73.62;100767.72;4947888;28;20143;-84
2021/08/09 00:18:57;;;;;;;3.30;1.00;;;;;;;13.63;73.21;100768.63;4968746;28;20035;-84
2021/08/09 00:21:23;;;;;;;5.35;1.50;;;;;;;13.62;73.16;100764.19;4965694;28;20397;-84
2021/08/09 00:23:48;;;;;;;3.50;0.98;;;;;;;13.62;73.27;100764.19;4968521;28;20038;-84
2021/08/09 00:26:14;;;;;;;3.65;1.13;;;;;;;13.62;73.39;100766.84;4965068;28;20377;-84
2021/08/09 00:28:40;;;;;;;3.00;1.10;;;;;;;13.58;73.66;100771.31;4968260;28;20046;-84
2021/08/09 00:31:07;;;;;;;3.60;1.33;;;;;;;13.57;73.37;100770.47;4965107;28;20042;-84
2021/08/09 00:33:33;;;;;;;5.43;1.20;;;;;;;13.54;73.75;100777.56;4964765;28;20035;-84
2021/08/09 00:35:58;;;;;;;2.78;1.30;;;;;;;13.52;73.64;100782.91;4968817;28;20087;-84
2021/08/09 00:38:24;;;;;;;4.93;1.23;;;;;;;13.49;74.01;100779.41;4973638;28;20045;-84
2021/08/09 00:40:49;;;;;;;3.65;1.40;;;;;;;13.48;74.41;100780.31;4965640;28;20049;-84
2021/08/09 00:43:15;;;;;;;3.00;1.33;;;;;;;13.43;74.68;100783.00;4968770;28;20030;-84
2021/08/09 00:45:41;;;;;;;3.47;1.40;;;;;;;13.41;74.76;100791.88;4966819;28;20454;-83
2021/08/09 00:48:07;;;;;;;5.60;1.50;;;;;;;13.33;75.37;100786.69;4962807;28;20054;-84
2021/08/09 00:50:34;;;;;;;3.95;1.08;;;;;;;13.30;74.69;100787.59;4951868;28;20339;-84
2021/08/09 00:53:01;;;;;;;4.78;1.27;;;;;;;13.34;74.51;100785.81;4965719;28;20718;-84
2021/08/09 00:55:26;;;;;;;4.60;1.23;;;;;;;13.32;75.29;100784.94;4967265;28;20026;-84
2021/08/09 00:57:52;;;;;;;3.53;1.23;;;;;;;13.34;74.03;100783.16;4965510;28;20035;-84
2021/08/09 01:00:23;;;;;;;3.92;1.25;;;;;;;13.37;73.99;100783.13;4965102;28;20038;-83
2021/08/09 01:02:49;;;;;;;3.03;1.38;;;;;;;13.40;73.76;100791.03;4945910;28;20043;-84
2021/08/09 01:05:15;;;;;;;3.22;1.35;;;;;;;13.37;74.32;100783.13;4964677;28;20031;-84
2021/08/09 01:08:05;;;;;;;4.13;1.50;;;;;;;13.34;74.38;100791.97;4963389;28;20023;-84
2021/08/09 01:10:47;;;;;;;5.45;1.75;;;;;;;13.37;74.61;100799.03;4964745;28;20680;-83
2021/08/09 01:13:32;;;;;;;3.97;1.73;;;;;;;13.34;74.25;100804.38;4964709;28;20043;-84
2021/08/09 01:16:07;;;;;;;3.67;1.20;;;;;;;13.36;74.42;100810.50;4964603;28;20054;-84
2021/08/09 01:18:36;;;;;;;3.47;1.58;;;;;;;13.31;74.47;100809.72;4948125;28;20031;-84
2021/08/09 01:21:07;;;;;;;2.97;1.30;;;;;;;13.33;74.49;100816.72;4950859;28;20034;-84
2021/08/09 01:23:51;;;;;;;2.55;1.10;;;;;;;13.35;74.17;100814.06;4965303;28;20063;-84
2021/08/09 01:26:38;;;;;;;3.80;1.65;;;;;;;13.30;74.55;100814.13;4963904;28;20047;-84
2021/08/09 01:29:09;;;;;;;4.10;1.55;;;;;;;13.31;74.12;100809.72;4948454;29;20035;-84
2021/08/09 01:31:43;;;;;;;4.22;1.38;;;;;;;13.31;74.24;100815.03;4963643;28;20055;-84
2021/08/09 01:34:12;;;;;;;2.53;1.05;;;;;;;13.28;73.92;100820.31;4965790;28;20468;-84
2021/08/09 01:36:47;;;;;;;3.10;1.55;;;;;;;13.25;74.43;100818.56;4965204;28;20402;-84
2021/08/09 01:39:15;;;;;;;3.83;1.20;;;;;;;13.30;74.01;100823.84;4964500;28;20070;-84
2021/08/09 01:41:42;;;;;;;3.22;1.60;;;;;;;13.30;73.94;100818.53;4968542;28;20027;-84
2021/08/09 01:44:08;;;;;;;3.35;1.10;;;;;;;13.32;74.16;100820.28;4963585;28;20498;-84
2021/08/09 01:46:34;;;;;;;3.90;1.27;;;;;;;13.27;74.33;100826.53;4968115;28;20041;-83
2021/08/09 01:49:05;;;;;;;3.33;1.33;;;;;;;13.28;73.90;100822.97;4963392;28;20042;-84
2021/08/09 01:51:32;;;;;;;2.28;1.10;;;;;;;13.22;74.96;100828.34;4969577;28;20493;-84
2021/08/09 01:54:00;;;;;;;3.00;1.40;;;;;;;13.24;74.37;100832.72;4969828;28;20106;-84
2021/08/09 01:56:26;;;;;;;4.72;1.42;;;;;;;13.23;73.96;100833.63;4970576;28;20027;-84
2021/08/09 01:58:51;;;;;;;2.47;1.20;;;;;;;13.21;74.70;100837.19;4964852;28;20553;-83
2021/08/09 02:01:21;;;;;;;4.47;1.30;;;;;;;13.22;73.94;100833.63;4967683;28;20071;-83
2021/08/09 02:03:47;;;;;;;3.83;1.23;;;;;;;13.23;74.47;100838.94;4951626;28;20056;-83
2021/08/09 02:06:14;;;;;;;3.40;1.10;;;;;;;13.21;74.22;100835.41;4968035;28;20046;-83
2021/08/09 02:08:39;;;;;;;2.65;1.10;;;;;;;13.19;74.23;100831.03;4951158;28;20038;-83
2021/08/09 02:11:17;;;;;;;4.00;1.05;;;;;;;13.20;74.15;100838.94;4965772;28;20417;-84
2021/08/09 02:13:57;;;;;;;3.30;1.08;;;;;;;13.19;74.37;100831.03;4950364;28;20039;-83
2021/08/09 02:16:32;;;;;;;3.75;1.40;;;;;;;13.19;74.35;100831.03;4951229;28;20035;-83
2021/08/09 02:19:15;;;;;;;3.22;1.20;;;;;;;13.19;74.00;100836.34;4966521;28;20062;-84
2021/08/09 02:21:55;;;;;;;4.88;1.33;;;;;;;13.17;74.15;100833.69;4967664;28;20085;-84
2021/08/09 02:24:29;;;;;;;5.22;1.40;;;;;;;13.16;74.53;100838.13;4950217;28;20035;-83
2021/08/09 02:27:02;;;;;;;4.50;1.40;;;;;;;13.18;74.42;100847.81;4968177;28;20035;-84
2021/08/09 02:29:29;;;;;;;;;;;;;;;13.10;74.94;100837.31;4968907;28;20034;-83
2021/08/09 02:31:58;;;;;;;4.82;1.60;;;;;;;13.12;74.29;100843.47;4950913;28;19914;-83
2021/08/09 02:34:26;;;;;;;3.78;1.33;;;;;;;13.13;74.14;100845.22;4950000;29;20035;-83
2021/08/09 02:36:53;;;;;;;3.35;1.38;;;;;;;13.12;74.58;100844.34;4955382;28;20038;-83
2021/08/09 02:39:19;;;;;;;3.08;1.42;;;;;;;13.15;73.89;100846.97;4953424;28;20027;-83
2021/08/09 02:41:47;;;;;;;3.65;1.40;;;;;;;13.16;73.86;100843.41;4974260;28;20465;-83
2021/08/09 02:44:13;;;;;;;3.72;1.35;;;;;;;13.14;74.39;100842.53;4973037;28;20110;-84
2021/08/09 02:46:41;;;;;;;3.78;1.40;;;;;;;13.14;74.16;100845.19;4970389;28;20198;-84
2021/08/09 02:49:08;;;;;;;4.60;1.35;;;;;;;13.14;74.23;100853.16;4968388;28;20053;-83
2021/08/09 02:51:34;;;;;;;4.68;2.10;;;;;;;13.11;74.76;100847.88;4971072;28;20015;-84
2021/08/09 02:54:01;;;;;;;3.75;1.67;;;;;;;13.09;74.38;100854.97;4970248;28;20541;-84
2021/08/09 02:56:28;;;;;;;3.00;1.23;;;;;;;13.11;74.55;100854.97;4951793;28;20031;-84
2021/08/09 02:58:54;;;;;;;3.55;1.52;;;;;;;13.11;74.29;100849.66;4964420;28;20086;-84
2021/08/09 03:01:20;;;;;;;5.60;1.83;;;;;;;13.10;74.13;100851.44;4967737;28;20038;-83
2021/08/09 03:03:49;;;;;;;3.00;1.10;;;;;;;13.10;74.20;100854.09;4934766;28;20034;-83
2021/08/09 03:06:16;;;;;;;3.30;1.40;;;;;;;13.12;74.05;100856.72;4964493;28;20043;-83
2021/08/09 03:08:42;;;;;;;3.10;1.45;;;;;;;13.11;73.79;100845.25;4967821;28;20027;-83
2021/08/09 03:11:08;;;;;;;3.92;1.20;;;;;;;13.13;74.04;100855.84;4950269;28;20054;-83
2021/08/09 03:13:36;;;;;;;3.35;1.40;;;;;;;13.10;74.10;100853.22;4953367;29;20031;-83
2021/08/09 03:16:01;;;;;;;2.78;1.40;;;;;;;13.11;74.05;100844.38;4970415;28;20043;-84
2021/08/09 03:18:33;;;;;;;4.88;1.40;;;;;;;13.10;73.82;100842.63;4964871;28;20494;-83
2021/08/09 03:20:59;;;;;;;5.63;1.73;;;;;;;13.08;74.30;100839.97;4950698;28;20047;-84
2021/08/09 03:23:25;;;;;;;4.85;1.20;;;;;;;13.03;74.17;100843.59;4968404;28;20043;-83
2021/08/09 03:25:50;;;;;;;5.28;2.22;;;;;;;13.03;74.40;100849.75;4969608;28;20089;-84
2021/08/09 03:28:16;;;;;;;3.55;1.70;;;;;;;13.03;74.37;100855.06;4974172;28;20037;-83
2021/08/09 03:30:41;;;;;;;2.75;1.40;;;;;;;12.99;74.79;100855.09;4976530;28;20050;-83
2021/08/09 03:33:07;;;;;;;4.35;1.58;;;;;;;12.91;74.68;100852.53;4970317;28;20112;-83
2021/08/09 03:35:34;;;;;;;4.10;1.58;;;;;;;12.89;75.15;100849.00;4968440;28;20031;-83
2021/08/09 03:37:59;;;;;;;4.68;1.80;;;;;;;12.86;74.95;100852.59;4968664;28;20122;-83
2021/08/09 03:40:24;;;;;;;3.80;1.70;;;;;;;12.83;74.87;100860.53;4959539;28;20042;-82
2021/08/09 03:42:50;;;;;;;3.08;1.40;;;;;;;12.80;75.67;100859.72;4972066;28;20046;-82
2021/08/09 03:45:15;;;;;;;8.50;2.40;;;;;;;12.77;75.04;100859.75;4950473;28;20039;-83
2021/08/09 03:47:40;;;;;;;6.32;1.90;;;;;;;12.74;75.46;100865.09;4967513;28;20105;-83
2021/08/09 03:50:06;;;;;;;4.45;2.15;;;;;;;12.72;76.00;100859.78;4967019;28;20093;-83
2021/08/09 03:52:32;;;;;;;3.13;1.27;;;;;;;12.68;75.85;100866.91;4966166;28;20083;-83
2021/08/09 03:54:57;;;;;;;4.38;1.40;;;;;;;12.70;75.95;100867.72;4966538;28;20107;-82
2021/08/09 03:57:23;;;;;;;4.70;1.58;;;;;;;12.74;75.78;100870.38;4968031;28;20059;-83
2021/08/09 03:59:48;;;;;;;3.58;1.42;;;;;;;12.79;75.52;100865.91;4951509;28;20061;-83
2021/08/09 04:02:16;;;;;;;3.40;1.63;;;;;;;12.84;75.77;100856.16;4968350;28;20035;-82
2021/08/09 04:04:41;;;;;;;4.07;1.25;;;;;;;12.88;74.90;100863.16;4966241;28;20038;-83
2021/08/09 04:07:07;;;;;;;2.47;1.35;;;;;;;12.89;75.28;100860.50;4965444;28;20042;-82
2021/08/09 04:09:32;;;;;;;4.35;1.75;;;;;;;12.94;75.07;100869.28;4966777;28;20066;-83
2021/08/09 04:11:58;;;;;;;2.85;1.20;;;;;;;13.02;75.01;100868.31;4965998;28;20490;-81
2021/08/09 04:14:23;;;;;;;3.75;1.30;;;;;;;13.06;74.45;100862.97;4965785;28;20066;-81
2021/08/09 04:16:48;;;;;;;6.10;1.80;;;;;;;13.11;75.12;100877.03;4950711;28;20042;-82
2021/08/09 04:19:14;;;;;;;7.30;2.00;;;;;;;13.20;74.50;100875.19;4967304;28;20034;-82
2021/08/09 04:21:41;;;;;;;4.80;1.60;;;;;;;13.31;73.89;100879.50;4963712;28;20066;-80
2021/08/09 04:24:06;;;;;;;5.63;1.92;;;;;;;13.40;73.93;100870.56;4966413;28;20497;-82
2021/08/09 04:26:32;;;;;;;4.13;1.65;;;;;;;13.49;73.74;100877.50;4963440;28;20090;-82
2021/08/09 04:28:57;;;;;;;2.92;1.40;;;;;;;13.57;73.17;100879.19;4946723;29;20118;-82
2021/08/09 04:31:22;;;;;;;3.13;1.52;;;;;;;13.64;72.88;100876.44;4966319;28;20039;-80
2021/08/09 04:33:49;;;;;;;2.20;1.00;;;;;;;13.73;72.33;100871.03;4947640;28;20039;-81
2021/08/09 04:36:15;;;;;;;3.35;1.20;;;;;;;13.84;72.63;100868.22;4967032;28;20553;-80
2021/08/09 04:38:41;;;;;;;3.13;1.00;;;;;;;13.91;72.28;100870.78;4947845;29;20063;-83
2021/08/09 04:41:09;;;;;;;2.72;1.30;;;;;;;14.00;71.81;100870.63;4962419;28;20677;-81
2021/08/09 04:43:37;;;;;;;3.35;1.60;;;;;;;14.08;71.82;100872.28;4961159;28;20106;-82
2021/08/09 04:46:04;;;;;;;4.40;1.20;;;;;;;14.13;71.60;100878.41;4948828;28;20031;-81
2021/08/09 04:48:31;;;;;;;3.15;1.50;;;;;;;14.18;71.52;100873.91;4944208;28;20027;-82
2021/08/09 04:50:57;;;;;;;3.47;1.50;;;;;;;14.23;71.22;100870.28;4968131;28;20037;-82
2021/08/09 04:53:23;;;;;;;4.15;1.55;;;;;;;14.28;70.92;100872.88;4964949;28;20097;-82
2021/08/09 04:55:48;;;;;;;4.78;1.85;;;;;;;14.30;71.09;100873.69;4964232;28;20122;-82
2021/08/09 04:58:14;;;;;;;3.28;1.40;;;;;;;14.40;71.08;100880.59;4932774;28;20031;-82
2021/08/09 05:00:40;;;;;;;6.40;2.17;;;;;;;14.44;71.37;100884.09;4963610;28;20033;-82
2021/08/09 05:03:05;;;;;;;19.45;13.05;;;;;;;14.48;71.25;100878.69;4966482;28;20097;-82
2021/08/09 05:05:31;;;;;;;9.02;3.47;;;;;;;14.57;70.72;100877.72;4963488;28;20032;-82
2021/08/09 05:07:56;;;;;;;4.85;1.90;;;;;;;14.60;70.64;100882.09;4966415;28;20030;-82
2021/08/09 05:10:26;;;;;;;5.68;1.75;;;;;;;14.70;70.57;100886.34;4941199;28;20117;-82
2021/08/09 05:12:52;;;;;;;6.53;2.83;;;;;;;14.77;70.56;100889.78;4933096;28;20450;-82
2021/08/09 05:15:20;;;;;;;4.88;2.00;;;;;;;14.77;70.81;100892.44;4964647;28;20031;-82
2021/08/09 05:17:45;;;;;;;7.10;2.22;;;;;;;14.84;70.51;100892.28;4949800;28;20035;-82
2021/08/09 05:20:11;;;;;;;5.63;2.25;;;;;;;14.87;70.09;100886.91;4946800;28;20126;-82
2021/08/09 05:22:36;;;;;;;6.68;2.70;;;;;;;14.96;69.71;100890.31;4950698;28;20130;-82
2021/08/09 05:25:09;;;;;;;6.70;2.53;;;;;;;15.03;69.84;100891.94;4965512;28;20034;-82
2021/08/09 05:27:34;;;;;;;6.20;2.10;;;;;;;15.07;70.01;100888.34;4952759;28;20050;-83
2021/08/09 05:30:00;;;;;;;7.55;2.13;;;;;;;15.15;69.27;100889.06;4971071;28;20035;-82
2021/08/09 05:32:25;;;;;;;5.88;1.85;;;;;;;15.21;69.23;100890.72;4965888;28;20032;-82
2021/08/09 05:34:51;;;;;;;4.00;1.67;;;;;;;15.28;68.64;100897.69;4970262;28;20117;-82
2021/08/09 05:37:16;;;;;;;4.28;1.45;;;;;;;15.40;69.07;100893.88;4969584;28;20081;-82
2021/08/09 05:39:42;;;;;;;4.80;2.00;;;;;;;15.48;68.37;100897.25;4964224;28;20058;-82
2021/08/09 05:42:08;;;;;;;5.43;1.60;;;;;;;15.52;68.34;100906.94;4976222;28;20160;-82
2021/08/09 05:44:33;;;;;;;5.38;1.80;;;;;;;15.64;68.32;100906.69;4959913;28;20035;-82
2021/08/09 05:46:59;;;;;;;5.55;1.88;;;;;;;15.74;68.16;100907.41;4956313;28;20027;-83
2021/08/09 05:49:25;;;;;;;7.40;1.88;;;;;;;15.90;67.52;100906.19;4976716;28;20030;-82
2021/08/09 05:51:53;;;;;;;3.95;1.50;;;;;;;16.07;67.23;100903.13;4969212;28;20035;-82
2021/08/09 05:54:18;;;;;;;3.63;1.40;;;;;;;16.20;67.38;100911.69;4952241;28;20129;-82
2021/08/09 05:56:44;;;;;;;3.90;1.48;;;;;;;16.29;66.94;100911.47;4969239;28;20056;-82
2021/08/09 05:59:10;;;;;;;2.55;1.40;;;;;;;16.42;66.44;100917.38;4966805;28;20053;-83
2021/08/09 06:01:35;;;;;;;6.07;1.70;;;;;;;16.47;66.23;100915.47;4970922;28;20062;-83
2021/08/09 06:04:01;;;;;;;5.22;1.83;;;;;;;16.58;66.54;100917.88;4966404;28;20123;-83
2021/08/09 06:06:26;;;;;;;3.97;1.40;;;;;;;16.65;65.35;100909.69;4951778;28;20038;-82
2021/08/09 06:09:02;;;;;;;6.00;1.70;;;;;;;16.81;65.72;100909.34;4968355;28;20085;-82
2021/08/09 06:11:27;;;;;;;6.43;2.05;;;;;;;16.95;65.70;100911.66;4950256;28;20035;-83
2021/08/09 06:13:55;;;;;;;4.53;1.85;;;;;;;17.09;65.11;100915.69;4968680;28;20049;-83
2021/08/09 06:16:20;;;;;;;3.17;1.48;;;;;;;17.28;64.36;100916.06;4949724;28;20035;-83
2021/08/09 06:19:01;;;;;;;3.33;1.60;;;;;;;17.39;64.59;100918.44;4974530;23;20079;-83
2021/08/09 06:21:37;;;;;;;3.30;1.20;;;;;;;17.64;63.57;100912.41;4964484;28;20404;-83
2021/08/09 06:24:14;;;;;;;3.83;1.40;;;;;;;17.75;64.02;100910.28;4962886;28;20035;-83
2021/08/09 06:26:43;;;;;;;3.25;1.10;;;;;;;17.91;63.56;100914.28;4951971;28;20031;-83
2021/08/09 06:29:12;;;;;;;2.95;1.50;;;;;;;18.04;62.42;100911.22;4955293;29;20031;-83
2021/08/09 06:31:39;;;;;;;3.40;1.58;;;;;;;18.16;62.68;100910.84;4954742;29;20638;-83
2021/08/09 06:34:12;;;;;;;3.45;1.60;;;;;;;18.11;61.63;100915.47;4953552;29;20098;-82
2021/08/09 06:36:40;;;;;;;4.03;1.70;;;;;;;18.29;61.82;100922.03;4954103;28;20027;-83
2021/08/09 06:39:06;;;;;;;4.32;1.90;;;;;;;18.40;62.02;100923.44;4955989;29;20057;-83
2021/08/09 06:41:34;;;;;;;7.75;4.13;;;;;;;18.48;61.34;100919.63;4940506;29;20035;-83
2021/08/09 06:44:31;;;;;;;7.18;1.67;;;;;;;18.48;61.21;100925.84;4938126;29;20047;-83
2021/08/09 06:46:57;;;;;;;4.88;2.00;;;;;;;18.61;61.94;100923.66;4962404;28;20031;-83
2021/08/09 06:49:23;;;;;;;3.78;1.10;;;;;;;18.78;61.14;100931.13;4949500;29;20039;-83
2021/08/09 06:51:49;;;;;;;5.85;1.83;;;;;;;18.99;61.19;100926.84;4943223;29;20100;-83
2021/08/09 06:54:14;;;;;;;3.70;1.50;;;;;;;19.15;60.89;100916.47;4949774;29;20135;-83
2021/08/09 06:56:43;;;;;;;3.20;1.25;;;;;;;19.14;59.93;100912.94;4948490;28;20138;-83
2021/08/09 06:59:09;;;;;;;5.32;1.88;;;;;;;19.12;60.27;100909.44;4960239;28;20130;-83
2021/08/09 07:01:35;;;;;;;7.80;1.90;;;;;;;19.26;59.88;100900.94;4953519;29;20107;-83
2021/08/09 07:04:01;;;;;;;4.07;1.40;;;;;;;19.32;59.17;100905.19;4932819;29;20028;-83
2021/08/09 07:06:26;;;;;;;6.00;1.67;;;;;;;19.47;59.41;100900.13;4944308;29;20032;-83
2021/08/09 07:08:55;;;;;;;5.55;1.70;;;;;;;19.63;59.51;100904.91;4954436;29;20038;-83
2021/08/09 07:11:22;;;;;;;4.22;1.73;;;;;;;19.74;58.93;100896.50;4947962;29;20570;-83
2021/08/09 07:13:50;;;;;;;4.28;1.48;;;;;;;19.72;58.71;100899.22;4945459;29;20139;-83
2021/08/09 07:16:16;;;;;;;5.55;1.80;;;;;;;19.75;57.68;100892.88;4965094;28;20039;-83
2021/08/09 07:18:42;;;;;;;7.68;2.88;;;;;;;19.82;57.83;100899.75;4947455;28;20094;-83
2021/08/09 07:21:10;;;;;;;4.63;1.80;;;;;;;19.81;56.76;100903.38;4946531;29;20036;-83
2021/08/09 07:23:36;;;;;;;7.65;1.40;;;;;;;19.90;57.14;100900.34;4961841;28;20127;-83
2021/08/09 07:26:02;;;;;;;4.68;1.70;;;;;;;20.00;56.79;100899.03;4949581;29;20082;-83
2021/08/09 07:28:27;;;;;;;6.90;1.40;;;;;;;19.93;55.66;100898.41;4946280;29;20042;-84
2021/08/09 07:30:52;;;;;;;4.45;1.83;;;;;;;20.07;56.33;100903.22;4965988;28;20059;-83
2021/08/09 07:33:18;;;;;;;6.00;1.65;;;;;;;20.23;55.92;100905.31;4948759;29;20039;-83
2021/08/09 07:35:44;;;;;;;6.15;2.00;;;;;;;20.31;55.92;100887.09;4958001;29;20058;-83
2021/08/09 07:38:10;;;;;;;4.72;1.70;;;;;;;20.40;55.65;100889.38;4950445;28;20066;-83
2021/08/09 07:40:35;;;;;;;3.83;1.40;;;;;;;20.54;55.64;100894.19;4949547;29;20036;-83
2021/08/09 07:43:04;;;;;;;4.47;1.50;;;;;;;20.38;55.19;100891.25;4962442;28;20042;-83
2021/08/09 07:45:30;;;;;;;4.45;1.63;;;;;;;20.56;54.75;100893.19;4946915;29;20032;-83
2021/08/09 07:47:57;;;;;;;4.45;1.70;;;;;;;20.65;54.37;100893.78;4948865;28;20035;-83
2021/08/09 07:50:24;;;;;;;6.55;1.98;;;;;;;20.86;54.44;100889.31;4965691;28;20073;-83
2021/08/09 07:52:50;;;;;;;7.68;1.70;;;;;;;21.04;53.36;100893.88;4954235;29;20410;-83
2021/08/09 07:55:15;;;;;;;4.05;1.83;;;;;;;21.13;53.83;100887.22;4953875;29;20043;-83
2021/08/09 07:57:44;;;;;;;5.07;1.40;;;;;;;21.29;53.23;100900.81;4953088;28;20046;-83
2021/08/09 08:00:11;;;;;;;5.00;1.80;;;;;;;21.30;53.42;100899.88;4953484;29;20085;-84
2021/08/09 08:02:50;;;;;;;3.95;1.67;;;;;;;21.24;51.99;100903.72;4970281;28;20078;-83
2021/08/09 08:05:17;;;;;;;5.03;1.40;;;;;;;21.11;51.51;100897.13;4947967;29;20035;-83
2021/08/09 08:07:42;;;;;;;5.07;2.30;;;;;;;21.28;52.22;100904.47;4950386;28;20320;-83
2021/08/09 08:10:09;;;;;;;4.03;1.67;;;;;;;21.36;51.90;100902.31;4947857;29;20075;-83
2021/08/09 08:12:34;;;;;;;4.45;1.85;;;;;;;21.56;51.96;100901.41;4949589;29;20556;-84
2021/08/09 08:15:00;;;;;;;3.92;1.77;;;;;;;21.61;51.76;100904.75;4960731;28;20035;-83
2021/08/09 08:17:25;;;;;;;3.72;1.63;;;;;;;21.58;50.29;100905.75;4935120;29;20031;-83
2021/08/09 08:19:52;;;;;;;5.75;1.75;;;;;;;21.62;50.95;100911.88;4949273;29;20118;-83
2021/08/09 08:22:18;;;;;;;3.13;1.25;;;;;;;21.50;50.29;100902.56;4959615;28;20063;-83
2021/08/09 08:24:43;;;;;;;3.10;1.33;;;;;;;21.27;50.34;100908.06;4946908;29;20486;-83
2021/08/09 08:27:09;;;;;;;4.68;2.20;;;;;;;21.29;51.32;100915.13;4948603;29;20031;-83
2021/08/09 08:29:34;;;;;;;5.22;1.50;;;;;;;21.35;51.20;100912.19;4959140;28;20041;-83
2021/08/09 08:32:02;;;;;;;6.28;1.88;;;;;;;21.28;51.53;100924.13;4946929;29;20095;-83
2021/08/09 08:34:27;;;;;;;3.80;1.15;;;;;;;21.27;51.85;100926.84;4947273;29;20486;-83
2021/08/09 08:36:53;;;;;;;4.35;1.50;;;;;;;21.17;52.75;100923.72;4958952;28;20040;-84
2021/08/09 08:39:20;;;;;;;2.40;1.05;;;;;;;21.20;50.81;100916.41;4946900;29;20402;-83
2021/08/09 08:41:45;;;;;;;2.67;1.30;;;;;;;21.05;51.88;100924.25;4959975;28;20046;-83
2021/08/09 08:44:17;;;;;;;3.30;1.13;;;;;;;21.01;50.94;100928.88;4953770;29;20031;-83
2021/08/09 08:46:44;;;;;;;4.40;1.20;;;;;;;20.85;51.48;100939.38;4931273;29;20040;-83
2021/08/09 08:49:14;;;;;;;3.80;1.20;;;;;;;20.77;52.07;100928.09;4945240;29;20290;-83
2021/08/09 08:51:47;;;;;;;3.78;0.95;;;;;;;20.79;51.97;100936.97;4951980;28;20027;-83
2021/08/09 08:54:15;;;;;;;3.17;1.30;;;;;;;20.73;51.66;100937.25;4948757;29;20039;-84
2021/08/09 08:56:42;;;;;;;5.53;1.30;;;;;;;20.62;52.57;100939.47;4946350;28;20065;-83
2021/08/09 08:59:13;;;;;;;3.75;1.60;;;;;;;20.65;52.60;100934.00;4948877;28;20067;-83
2021/08/09 09:01:44;;;;;;;3.75;1.80;;;;;;;20.62;52.27;100939.47;4947648;29;20046;-83
2021/08/09 09:04:22;;;;;;;3.25;1.20;;;;;;;20.68;52.13;100944.59;4946058;29;20081;-84
2021/08/09 09:06:54;;;;;;;6.25;1.30;;;;;;;20.76;51.31;100937.09;4964976;28;20050;-83
2021/08/09 09:09:23;;;;;;;3.80;1.17;;;;;;;20.86;51.37;100938.47;4948253;29;20511;-83
2021/08/09 09:11:49;;;;;;;5.38;1.50;;;;;;;21.06;51.50;100937.59;4946315;29;20035;-84
2021/08/09 09:14:24;;;;;;;3.05;1.30;;;;;;;21.21;49.68;100936.94;4948967;29;20130;-83
2021/08/09 09:16:50;;;;;;;4.53;1.10;;;;;;;21.47;50.62;100934.06;4926471;29;20031;-84
2021/08/09 09:19:38;;;;;;;2.55;1.10;;;;;;;21.77;47.91;100929.09;4959876;28;20044;-84
2021/08/09 09:22:21;;;;;;;3.03;1.30;;;;;;;22.11;47.29;100925.69;4947030;28;20040;-82
2021/08/09 09:24:57;;;;;;;3.63;1.25;;;;;;;22.51;45.92;100926.47;4947743;29;20063;-84
2021/08/09 09:27:31;;;;;;;4.75;1.45;;;;;;;22.69;46.20;100917.50;4939098;29;20586;-83
2021/08/09 09:29:57;;;;;;;4.47;1.83;;;;;;;22.87;44.00;100921.06;4953684;28;20498;-83
2021/08/09 09:32:23;;;;;;;10.20;1.95;;;;;;;23.27;43.45;100918.16;4954694;29;20031;-83
2021/08/09 09:34:51;;;;;;;6.30;2.30;;;;;;;23.46;43.63;100916.22;4962624;28;20068;-83
2021/08/09 09:37:37;;;;;;;5.18;1.80;;;;;;;23.66;43.01;100917.84;4940554;29;20036;-83
2021/08/09 09:40:08;;;;;;;5.05;1.60;;;;;;;23.80;43.87;100917.09;4958828;28;20491;-83
2021/08/09 09:42:35;;;;;;;6.55;1.90;;;;;;;23.97;43.47;100919.75;4947829;28;20050;-83
2021/08/09 09:45:48;;;;;;;4.68;1.50;;;;;;;23.86;42.70;100914.06;4943835;29;20043;-83
2021/08/09 09:48:14;;;;;;;;;;;;;;;23.69;42.99;100914.09;4907030;29;20068;-83
2021/08/09 09:50:42;;;;;;;4.13;1.55;;;;;;;23.75;43.88;100913.78;4903357;29;19962;-84
2021/08/09 09:53:18;;;;;;;2.33;1.10;;;;;;;23.91;43.60;100916.50;4932560;28;20395;-83
2021/08/09 09:55:47;;;;;;;3.30;1.40;;;;;;;23.93;43.37;100912.75;4944979;29;20118;-83
2021/08/09 09:58:12;;;;;;;3.95;1.35;;;;;;;23.92;43.42;100916.44;4943802;28;20039;-84
2021/08/09 10:00:40;;;;;;;4.43;1.60;;;;;;;23.94;42.86;100908.25;4961278;28;20032;-84
2021/08/09 10:03:05;;;;;;;3.35;1.17;;;;;;;23.94;43.28;100914.50;4947151;28;20043;-83
2021/08/09 10:05:33;;;;;;;2.58;0.82;;;;;;;23.87;42.70;100907.72;4961905;28;20040;-83
2021/08/09 10:08:01;;;;;;;3.13;1.23;;;;;;;23.83;43.36;100908.84;4943382;28;20043;-84
2021/08/09 10:10:27;;;;;;;3.72;1.48;;;;;;;23.95;42.74;100913.56;4943129;28;20035;-83
2021/08/09 10:12:52;;;;;;;3.63;1.83;;;;;;;24.16;43.23;100905.22;4945672;29;20421;-84
2021/08/09 10:15:20;;;;;;;4.93;1.48;;;;;;;24.36;41.74;100904.91;4949638;29;20031;-83
2021/08/09 10:17:47;;;;;;;4.28;1.40;;;;;;;24.29;40.97;100908.94;4948679;29;20047;-84
2021/08/09 10:20:16;;;;;;;2.40;0.95;;;;;;;24.18;42.65;100908.66;4962028;28;20036;-84
2021/08/09 10:22:53;;;;;;;4.10;0.95;;;;;;;24.24;42.68;100913.75;4947541;28;20043;-82
2021/08/09 10:25:43;;;;;;;2.45;0.95;;;;;;;24.05;41.85;100917.47;4949207;29;20039;-84
2021/08/09 10:28:08;;;;;;;9.52;6.95;;;;;;;23.98;42.21;100909.81;4931887;29;20078;-84
2021/08/09 10:30:36;;;;;;;4.32;2.05;;;;;;;23.97;42.01;100903.56;4955951;29;20080;-84
2021/08/09 10:33:09;;;;;;;3.25;1.17;;;;;;;23.96;41.81;100909.03;4965191;28;20075;-84
2021/08/09 10:35:43;;;;;;;3.30;1.10;;;;;;;24.15;42.22;100904.31;4950839;29;20070;-84
2021/08/09 10:38:25;;;;;;;2.88;1.08;;;;;;;24.25;41.34;100905.53;4950250;28;20099;-84
2021/08/09 10:41:00;;;;;;;3.78;0.95;;;;;;;24.47;40.43;100905.22;4948019;29;20039;-84
2021/08/09 10:43:25;;;;;;;3.15;1.10;;;;;;;24.93;41.50;100907.88;4942138;29;20499;-82
2021/08/09 10:45:50;;;;;;;3.08;0.98;;;;;;;24.98;39.46;100895.94;4948948;29;20074;-82
2021/08/09 10:48:46;;;;;;;4.05;1.13;;;;;;;25.23;38.98;100890.81;4946720;28;20039;-82
2021/08/09 10:51:12;;;;;;;2.15;1.10;;;;;;;25.40;38.83;100894.28;4945716;29;20495;-82
2021/08/09 10:53:43;;;;;;;2.15;0.95;;;;;;;25.38;39.48;100891.69;4946829;29;20035;-82
2021/08/09 10:56:27;;;;;;;4.40;1.10;;;;;;;25.58;37.85;100885.03;4962584;28;20513;-83
2021/08/09 10:58:53;;;;;;;4.47;1.70;;;;;;;25.24;37.92;100889.84;4947530;28;20040;-83
2021/08/09 11:01:22;;;;;;;2.65;0.80;;;;;;;25.07;38.14;100885.47;4949670;29;20039;-83
2021/08/09 11:04:02;;;;;;;3.42;1.10;;;;;;;25.04;38.45;100879.34;4952917;28;20129;-83
2021/08/09 11:06:53;;;;;;;3.70;1.35;;;;;;;25.03;38.75;100877.63;4960684;28;20059;-82
2021/08/09 11:09:30;;;;;;;2.15;0.70;;;;;;;25.19;39.30;100888.41;4949760;29;20537;-83
2021/08/09 11:12:19;;;;;;;3.70;1.20;;;;;;;25.58;37.58;100874.22;4962216;28;20035;-83
2021/08/09 11:15:03;;;;;;;4.10;1.30;;;;;;;25.70;36.25;100886.97;4948315;29;20054;-82
2021/08/09 11:17:37;;;;;;;2.22;0.73;;;;;;;25.92;36.14;100882.91;4946395;29;20040;-83
2021/08/09 11:20:32;;;;;;;4.78;1.20;;;;;;;25.86;36.85;100886.88;4963617;28;20098;-82
2021/08/09 11:23:12;;;;;;;4.75;1.27;;;;;;;25.96;36.15;100884.44;4945197;28;20042;-83
2021/08/09 11:25:43;;;;;;;3.03;1.20;;;;;;;25.57;38.13;100889.56;4945623;29;20050;-82
2021/08/09 11:28:09;;;;;;;;;;;;;;;25.58;38.18;100885.03;4946761;28;20028;-82
2021/08/09 11:30:39;;;;;;;4.03;1.42;;;;;;;25.51;38.11;100883.66;4946167;29;19919;-82
2021/08/09 11:33:06;;;;;;;3.47;1.23;;;;;;;25.51;38.25;100872.88;4948779;29;20043;-82
2021/08/09 11:35:40;;;;;;;3.25;1.40;;;;;;;25.95;37.65;100874.59;4944939;29;20040;-82